sensor_id;sensor_type;location;lat;lon;timestamp;pressure;altitude;pressure_sealevel;temperature;humidity
71361;BME280;59166;48.908;1.870;2023-02-21T00:00:02;101027.28;;;3.34;100.00
71361;BME280;59166;48.908;1.870;2023-02-21T00:05:03;101021.81;;;3.21;100.00
71361;BME280;59166;48.908;1.870;2023-02-21T00:10:04;101027.06;;;3.07;100.00
71361;BME280;59166;48.908;1.870;2023-02-21T00:15:07;101018.78;;;2.96;100.00
71361;BME280;59166;48.908;1.870;2023-02-21T00:20:08;101019.72;;;2.88;100.00
71361;BME280;59166;48.908;1.870;2023-02-21T00:25:09;101019.06;;;2.80;100.00
71361;BME280;59166;48.908;1.870;2023-02-21T00:30:13;101011.56;;;2.69;100.00
71361;BME280;59166;48.908;1.870;2023-02-21T00:35:14;101006.78;;;2.64;100.00
71361;BME280;59166;48.908;1.870;2023-02-21T00:40:15;101005.34;;;2.61;100.00
71361;BME280;59166;48.908;1.870;2023-02-21T00:45:17;101002.41;;;2.56;100.00
71361;BME280;59166;48.908;1.870;2023-02-21T00:50:18;100988.84;;;2.51;100.00
71361;BME280;59166;48.908;1.870;2023-02-21T00:55:19;100990.50;;;2.52;100.00
71361;BME280;59166;48.908;1.870;2023-02-21T01:00:22;100982.50;;;2.52;100.00
71361;BME280;59166;48.908;1.870;2023-02-21T01:05:23;100982.78;;;2.43;100.00
71361;BME280;59166;48.908;1.870;2023-02-21T01:10:24;100978.72;;;2.26;100.00
71361;BME280;59166;48.908;1.870;2023-02-21T01:15:26;100967.25;;;2.25;100.00
71361;BME280;59166;48.908;1.870;2023-02-21T01:20:27;100967.31;;;2.32;100.00
71361;BME280;59166;48.908;1.870;2023-02-21T01:25:27;100961.34;;;2.30;100.00
71361;BME280;59166;48.908;1.870;2023-02-21T01:30:29;100959.19;;;2.19;100.00
71361;BME280;59166;48.908;1.870;2023-02-21T01:35:30;100954.38;;;2.07;100.00
71361;BME280;59166;48.908;1.870;2023-02-21T01:40:31;100944.53;;;2.08;100.00
71361;BME280;59166;48.908;1.870;2023-02-21T01:45:49;100940.47;;;2.12;100.00
71361;BME280;59166;48.908;1.870;2023-02-21T01:50:50;100935.50;;;2.09;100.00
71361;BME280;59166;48.908;1.870;2023-02-21T01:55:53;100927.50;;;2.09;100.00
71361;BME280;59166;48.908;1.870;2023-02-21T02:00:55;100927.28;;;2.04;100.00
71361;BME280;59166;48.908;1.870;2023-02-21T02:05:58;100931.19;;;1.87;100.00
71361;BME280;59166;48.908;1.870;2023-02-21T02:11:05;100920.84;;;1.77;100.00
71361;BME280;59166;48.908;1.870;2023-02-21T02:16:18;100919.31;;;1.68;100.00
71361;BME280;59166;48.908;1.870;2023-02-21T02:21:56;100913.25;;;1.59;100.00
71361;BME280;59166;48.908;1.870;2023-02-21T02:32:49;100897.81;;;1.34;100.00
71361;BME280;59166;48.908;1.870;2023-02-21T02:37:59;100900.22;;;0.99;100.00
71361;BME280;59166;48.908;1.870;2023-02-21T02:43:08;100893.75;;;0.94;100.00
71361;BME280;59166;48.908;1.870;2023-02-21T02:48:13;100878.25;;;0.97;100.00
71361;BME280;59166;48.908;1.870;2023-02-21T02:53:20;100877.25;;;0.98;100.00
71361;BME280;59166;48.908;1.870;2023-02-21T02:58:22;100876.63;;;0.96;100.00
71361;BME280;59166;48.908;1.870;2023-02-21T03:03:45;100872.31;;;0.95;100.00
71361;BME280;59166;48.908;1.870;2023-02-21T03:09:00;100871.94;;;0.98;100.00
71361;BME280;59166;48.908;1.870;2023-02-21T03:14:05;100861.31;;;0.98;100.00
71361;BME280;59166;48.908;1.870;2023-02-21T03:19:09;100869.81;;;0.94;100.00
71361;BME280;59166;48.908;1.870;2023-02-21T03:24:13;100864.78;;;0.84;100.00
71361;BME280;59166;48.908;1.870;2023-02-21T03:29:16;100848.28;;;0.74;100.00
71361;BME280;59166;48.908;1.870;2023-02-21T03:34:18;100849.41;;;0.65;100.00
71361;BME280;59166;48.908;1.870;2023-02-21T03:39:20;100848.19;;;0.68;100.00
71361;BME280;59166;48.908;1.870;2023-02-21T03:44:21;100839.38;;;0.67;100.00
71361;BME280;59166;48.908;1.870;2023-02-21T03:49:21;100840.22;;;0.53;100.00
71361;BME280;59166;48.908;1.870;2023-02-21T03:54:24;100833.31;;;0.44;100.00
71361;BME280;59166;48.908;1.870;2023-02-21T03:59:24;100831.88;;;0.41;100.00
71361;BME280;59166;48.908;1.870;2023-02-21T04:04:25;100823.25;;;0.39;100.00
71361;BME280;59166;48.908;1.870;2023-02-21T04:09:27;100825.25;;;0.37;100.00
71361;BME280;59166;48.908;1.870;2023-02-21T04:14:27;100824.63;;;0.35;100.00
71361;BME280;59166;48.908;1.870;2023-02-21T04:19:28;100829.38;;;0.25;100.00
71361;BME280;59166;48.908;1.870;2023-02-21T04:24:30;100822.94;;;0.20;100.00
71361;BME280;59166;48.908;1.870;2023-02-21T04:29:31;100820.47;;;0.18;100.00
71361;BME280;59166;48.908;1.870;2023-02-21T04:34:31;100825.25;;;0.23;100.00
71361;BME280;59166;48.908;1.870;2023-02-21T04:39:33;100828.53;;;0.25;100.00
71361;BME280;59166;48.908;1.870;2023-02-21T04:44:34;100835.41;;;0.19;100.00
71361;BME280;59166;48.908;1.870;2023-02-21T04:49:35;100828.59;;;0.17;100.00
71361;BME280;59166;48.908;1.870;2023-02-21T04:54:37;100833.91;;;0.17;100.00
71361;BME280;59166;48.908;1.870;2023-02-21T04:59:37;100834.28;;;0.14;100.00
71361;BME280;59166;48.908;1.870;2023-02-21T05:04:38;100827.16;;;0.14;100.00
71361;BME280;59166;48.908;1.870;2023-02-21T05:09:40;100816.06;;;0.11;100.00
71361;BME280;59166;48.908;1.870;2023-02-21T05:14:41;100811.75;;;0.09;100.00
71361;BME280;59166;48.908;1.870;2023-02-21T05:19:41;100807.25;;;0.10;100.00
71361;BME280;59166;48.908;1.870;2023-02-21T05:24:43;100803.13;;;0.07;100.00
71361;BME280;59166;48.908;1.870;2023-02-21T05:29:45;100798.81;;;0.06;100.00
71361;BME280;59166;48.908;1.870;2023-02-21T05:34:46;100793.59;;;-0.02;100.00
71361;BME280;59166;48.908;1.870;2023-02-21T05:39:48;100797.97;;;-0.09;100.00
71361;BME280;59166;48.908;1.870;2023-02-21T05:44:49;100786.22;;;-0.14;100.00
71361;BME280;59166;48.908;1.870;2023-02-21T05:49:50;100778.16;;;-0.21;100.00
71361;BME280;59166;48.908;1.870;2023-02-21T05:54:52;100773.50;;;-0.19;100.00
71361;BME280;59166;48.908;1.870;2023-02-21T05:59:52;100776.31;;;-0.20;100.00
71361;BME280;59166;48.908;1.870;2023-02-21T06:04:53;100785.47;;;-0.23;100.00
71361;BME280;59166;48.908;1.870;2023-02-21T06:09:55;100787.50;;;-0.25;100.00
71361;BME280;59166;48.908;1.870;2023-02-21T06:14:56;100784.38;;;-0.28;100.00
71361;BME280;59166;48.908;1.870;2023-02-21T06:19:56;100774.28;;;-0.33;100.00
71361;BME280;59166;48.908;1.870;2023-02-21T06:24:58;100758.34;;;-0.33;100.00
71361;BME280;59166;48.908;1.870;2023-02-21T06:29:59;100746.59;;;-0.53;100.00
71361;BME280;59166;48.908;1.870;2023-02-21T06:35:00;100736.97;;;-0.77;100.00
71361;BME280;59166;48.908;1.870;2023-02-21T06:40:03;100725.66;;;-0.93;100.00
71361;BME280;59166;48.908;1.870;2023-02-21T06:45:04;100727.66;;;-0.96;100.00
71361;BME280;59166;48.908;1.870;2023-02-21T06:50:05;100721.69;;;-0.98;100.00
71361;BME280;59166;48.908;1.870;2023-02-21T06:55:07;100720.63;;;-1.11;100.00
71361;BME280;59166;48.908;1.870;2023-02-21T07:00:09;100720.13;;;-1.15;100.00
71361;BME280;59166;48.908;1.870;2023-02-21T07:05:10;100733.88;;;-1.11;100.00
71361;BME280;59166;48.908;1.870;2023-02-21T07:10:12;100729.41;;;-1.11;100.00
71361;BME280;59166;48.908;1.870;2023-02-21T07:15:13;100720.34;;;-1.16;100.00
71361;BME280;59166;48.908;1.870;2023-02-21T07:20:13;100737.34;;;-1.11;100.00
71361;BME280;59166;48.908;1.870;2023-02-21T07:25:18;100733.00;;;-1.04;100.00
71361;BME280;59166;48.908;1.870;2023-02-21T07:30:19;100729.72;;;-1.06;100.00
71361;BME280;59166;48.908;1.870;2023-02-21T07:35:19;100733.00;;;-1.04;100.00
71361;BME280;59166;48.908;1.870;2023-02-21T07:40:21;100724.78;;;-0.86;100.00
71361;BME280;59166;48.908;1.870;2023-02-21T07:45:22;100725.13;;;-0.66;100.00
71361;BME280;59166;48.908;1.870;2023-02-21T07:50:22;100723.44;;;-0.45;100.00
71361;BME280;59166;48.908;1.870;2023-02-21T07:55:25;100724.00;;;-0.12;100.00
71361;BME280;59166;48.908;1.870;2023-02-21T08:00:25;100730.25;;;-0.05;100.00
71361;BME280;59166;48.908;1.870;2023-02-21T08:05:26;100730.59;;;-0.08;100.00
71361;BME280;59166;48.908;1.870;2023-02-21T08:10:28;100739.09;;;-0.12;100.00
71361;BME280;59166;48.908;1.870;2023-02-21T08:15:29;100732.91;;;-0.05;100.00
71361;BME280;59166;48.908;1.870;2023-02-21T08:20:29;100727.56;;;0.10;100.00
71361;BME280;59166;48.908;1.870;2023-02-21T08:25:31;100723.00;;;0.33;100.00
71361;BME280;59166;48.908;1.870;2023-02-21T08:30:32;100734.53;;;0.70;100.00
71361;BME280;59166;48.908;1.870;2023-02-21T08:35:33;100737.28;;;0.97;100.00
71361;BME280;59166;48.908;1.870;2023-02-21T08:40:35;100743.13;;;1.07;100.00
71361;BME280;59166;48.908;1.870;2023-02-21T08:45:36;100744.09;;;1.21;100.00
71361;BME280;59166;48.908;1.870;2023-02-21T08:50:36;100744.31;;;1.62;100.00
71361;BME280;59166;48.908;1.870;2023-02-21T08:55:38;100749.81;;;2.09;100.00
71361;BME280;59166;48.908;1.870;2023-02-21T09:00:39;100732.97;;;2.37;100.00
71361;BME280;59166;48.908;1.870;2023-02-21T09:05:39;100736.34;;;2.52;100.00
71361;BME280;59166;48.908;1.870;2023-02-21T09:10:42;100747.25;;;2.63;100.00
71361;BME280;59166;48.908;1.870;2023-02-21T09:15:42;100739.19;;;2.91;100.00
71361;BME280;59166;48.908;1.870;2023-02-21T09:20:43;100742.16;;;3.23;100.00
71361;BME280;59166;48.908;1.870;2023-02-21T09:25:45;100731.91;;;3.33;100.00
71361;BME280;59166;48.908;1.870;2023-02-21T09:30:47;100737.09;;;3.54;100.00
71361;BME280;59166;48.908;1.870;2023-02-21T09:35:47;100735.00;;;3.95;100.00
71361;BME280;59166;48.908;1.870;2023-02-21T09:40:53;100727.75;;;4.35;100.00
71361;BME280;59166;48.908;1.870;2023-02-21T09:45:59;100733.00;;;4.75;100.00
71361;BME280;59166;48.908;1.870;2023-02-21T09:51:03;100726.91;;;5.05;100.00
71361;BME280;59166;48.908;1.870;2023-02-21T09:56:11;100724.19;;;5.43;100.00
71361;BME280;59166;48.908;1.870;2023-02-21T10:01:26;100723.75;;;5.71;100.00
71361;BME280;59166;48.908;1.870;2023-02-21T10:06:37;100732.75;;;5.83;100.00
71361;BME280;59166;48.908;1.870;2023-02-21T10:11:49;100720.16;;;6.08;100.00
71361;BME280;59166;48.908;1.870;2023-02-21T10:16:58;100717.94;;;6.23;100.00
71361;BME280;59166;48.908;1.870;2023-02-21T10:22:09;100714.81;;;6.51;100.00
71361;BME280;59166;48.908;1.870;2023-02-21T10:27:17;100713.88;;;6.75;100.00
71361;BME280;59166;48.908;1.870;2023-02-21T10:32:19;100717.50;;;6.99;100.00
71361;BME280;59166;48.908;1.870;2023-02-21T10:37:28;100710.66;;;7.45;99.51
71361;BME280;59166;48.908;1.870;2023-02-21T10:42:39;100705.38;;;7.79;100.00
71361;BME280;59166;48.908;1.870;2023-02-21T10:47:48;100697.66;;;8.06;100.00
71361;BME280;59166;48.908;1.870;2023-02-21T10:52:53;100684.28;;;8.35;100.00
71361;BME280;59166;48.908;1.870;2023-02-21T10:57:56;100686.91;;;8.58;98.55
71361;BME280;59166;48.908;1.870;2023-02-21T11:03:04;100694.22;;;8.57;96.31
71361;BME280;59166;48.908;1.870;2023-02-21T11:08:07;100698.91;;;8.50;95.39
71361;BME280;59166;48.908;1.870;2023-02-21T11:13:15;100692.91;;;8.60;97.34
71361;BME280;59166;48.908;1.870;2023-02-21T11:18:18;100684.19;;;8.81;96.41
71361;BME280;59166;48.908;1.870;2023-02-21T11:23:24;100678.81;;;9.09;95.65
71361;BME280;59166;48.908;1.870;2023-02-21T11:28:27;100665.38;;;9.26;95.59
71361;BME280;59166;48.908;1.870;2023-02-21T11:33:28;100664.50;;;9.54;95.58
71361;BME280;59166;48.908;1.870;2023-02-21T11:38:32;100644.78;;;10.03;92.45
71361;BME280;59166;48.908;1.870;2023-02-21T11:43:34;100627.63;;;10.53;93.23
71361;BME280;59166;48.908;1.870;2023-02-21T11:48:38;100613.28;;;10.74;90.17
71361;BME280;59166;48.908;1.870;2023-02-21T11:53:42;100607.19;;;10.83;87.77
71361;BME280;59166;48.908;1.870;2023-02-21T11:58:53;100588.84;;;10.85;88.93
71361;BME280;59166;48.908;1.870;2023-02-21T12:04:07;100588.00;;;11.44;87.68
71361;BME280;59166;48.908;1.870;2023-02-21T12:09:15;100582.22;;;11.67;86.50
71361;BME280;59166;48.908;1.870;2023-02-21T12:14:32;100570.75;;;11.97;84.65
71361;BME280;59166;48.908;1.870;2023-02-21T12:20:01;100565.47;;;12.22;84.36
71361;BME280;59166;48.908;1.870;2023-02-21T12:25:13;100554.75;;;12.47;80.37
71361;BME280;59166;48.908;1.870;2023-02-21T12:30:26;100545.00;;;12.51;83.74
71361;BME280;59166;48.908;1.870;2023-02-21T12:41:22;100522.00;;;12.64;83.37
71361;BME280;59166;48.908;1.870;2023-02-21T12:46:33;100509.00;;;13.01;79.10
71361;BME280;59166;48.908;1.870;2023-02-21T12:51:38;100493.84;;;13.05;81.73
71361;BME280;59166;48.908;1.870;2023-02-21T12:56:46;100486.75;;;13.34;79.15
71361;BME280;59166;48.908;1.870;2023-02-21T13:01:52;100469.63;;;13.49;80.48
71361;BME280;59166;48.908;1.870;2023-02-21T13:06:58;100474.84;;;13.30;75.56
71361;BME280;59166;48.908;1.870;2023-02-21T13:12:04;100468.88;;;13.23;78.58
71361;BME280;59166;48.908;1.870;2023-02-21T13:17:10;100460.13;;;13.41;78.49
71361;BME280;59166;48.908;1.870;2023-02-21T13:27:56;100444.38;;;13.49;72.86
71361;BME280;59166;48.908;1.870;2023-02-21T13:33:03;100434.56;;;13.68;72.33
71361;BME280;59166;48.908;1.870;2023-02-21T13:38:05;100425.34;;;13.64;72.53
71361;BME280;59166;48.908;1.870;2023-02-21T13:43:14;100419.38;;;13.62;72.91
71361;BME280;59166;48.908;1.870;2023-02-21T13:48:23;100410.69;;;13.70;70.59
71361;BME280;59166;48.908;1.870;2023-02-21T13:53:26;100401.97;;;13.73;70.05
71361;BME280;59166;48.908;1.870;2023-02-21T13:58:36;100387.84;;;13.81;72.11
71361;BME280;59166;48.908;1.870;2023-02-21T14:03:38;100377.44;;;13.93;69.71
71361;BME280;59166;48.908;1.870;2023-02-21T14:08:40;100373.03;;;14.02;67.80
71361;BME280;59166;48.908;1.870;2023-02-21T14:13:47;100372.50;;;14.00;68.55
71361;BME280;59166;48.908;1.870;2023-02-21T14:18:52;100355.13;;;14.01;68.02
71361;BME280;59166;48.908;1.870;2023-02-21T14:23:57;100348.56;;;14.07;68.29
71361;BME280;59166;48.908;1.870;2023-02-21T14:29:10;100343.94;;;14.08;67.58
71361;BME280;59166;48.908;1.870;2023-02-21T14:34:13;100343.66;;;14.09;67.48
71361;BME280;59166;48.908;1.870;2023-02-21T14:39:17;100342.75;;;14.24;67.05
71361;BME280;59166;48.908;1.870;2023-02-21T14:44:25;100334.41;;;14.44;65.56
71361;BME280;59166;48.908;1.870;2023-02-21T14:49:55;100334.78;;;14.32;66.53
71361;BME280;59166;48.908;1.870;2023-02-21T15:00:41;100327.69;;;14.36;65.56
71361;BME280;59166;48.908;1.870;2023-02-21T15:05:55;100318.28;;;14.24;66.44
71361;BME280;59166;48.908;1.870;2023-02-21T15:11:01;100315.91;;;14.12;66.67
71361;BME280;59166;48.908;1.870;2023-02-21T15:16:04;100303.69;;;14.15;67.20
71361;BME280;59166;48.908;1.870;2023-02-21T15:21:15;100304.53;;;14.10;67.74
71361;BME280;59166;48.908;1.870;2023-02-21T15:26:18;100294.34;;;14.26;66.10
71361;BME280;59166;48.908;1.870;2023-02-21T15:31:20;100289.28;;;14.14;66.11
71361;BME280;59166;48.908;1.870;2023-02-21T15:36:22;100287.41;;;14.10;66.59
71361;BME280;59166;48.908;1.870;2023-02-21T15:41:27;100284.44;;;14.11;65.00
71361;BME280;59166;48.908;1.870;2023-02-21T15:46:31;100279.03;;;14.06;64.97
71361;BME280;59166;48.908;1.870;2023-02-21T15:51:36;100276.88;;;14.03;65.13
71361;BME280;59166;48.908;1.870;2023-02-21T15:56:37;100275.91;;;13.89;65.37
71361;BME280;59166;48.908;1.870;2023-02-21T16:01:38;100271.59;;;13.83;64.89
71361;BME280;59166;48.908;1.870;2023-02-21T16:06:46;100266.22;;;13.78;64.83
71361;BME280;59166;48.908;1.870;2023-02-21T16:11:49;100268.97;;;13.68;64.87
71361;BME280;59166;48.908;1.870;2023-02-21T16:16:58;100261.97;;;13.57;65.79
71361;BME280;59166;48.908;1.870;2023-02-21T16:22:22;100264.44;;;13.48;66.16
71361;BME280;59166;48.908;1.870;2023-02-21T16:27:23;100269.66;;;13.39;68.40
71361;BME280;59166;48.908;1.870;2023-02-21T16:32:24;100262.97;;;13.27;67.98
71361;BME280;59166;48.908;1.870;2023-02-21T16:37:26;100272.75;;;13.18;69.80
71361;BME280;59166;48.908;1.870;2023-02-21T16:42:27;100272.53;;;13.04;70.63
71361;BME280;59166;48.908;1.870;2023-02-21T16:47:27;100271.25;;;12.81;74.15
71361;BME280;59166;48.908;1.870;2023-02-21T16:52:30;100255.56;;;12.63;72.23
71361;BME280;59166;48.908;1.870;2023-02-21T16:57:30;100248.84;;;12.51;72.38
71361;BME280;59166;48.908;1.870;2023-02-21T17:02:31;100255.38;;;12.34;74.71
71361;BME280;59166;48.908;1.870;2023-02-21T17:07:33;100253.72;;;12.23;73.69
71361;BME280;59166;48.908;1.870;2023-02-21T17:12:33;100246.44;;;12.19;73.30
71361;BME280;59166;48.908;1.870;2023-02-21T17:17:34;100254.81;;;12.17;73.81
71361;BME280;59166;48.908;1.870;2023-02-21T17:22:36;100260.78;;;12.34;73.23
71361;BME280;59166;48.908;1.870;2023-02-21T17:27:37;100252.66;;;12.34;73.83
71361;BME280;59166;48.908;1.870;2023-02-21T17:32:37;100252.91;;;12.33;74.64
71361;BME280;59166;48.908;1.870;2023-02-21T17:37:39;100240.19;;;12.33;75.29
71361;BME280;59166;48.908;1.870;2023-02-21T17:42:40;100248.03;;;12.30;75.36
71361;BME280;59166;48.908;1.870;2023-02-21T17:47:41;100243.44;;;12.41;75.28
71361;BME280;59166;48.908;1.870;2023-02-21T17:52:43;100235.06;;;12.22;75.90
71361;BME280;59166;48.908;1.870;2023-02-21T17:57:44;100243.44;;;12.25;75.84
71361;BME280;59166;48.908;1.870;2023-02-21T18:02:44;100238.56;;;12.22;75.89
71361;BME280;59166;48.908;1.870;2023-02-21T18:07:48;100242.34;;;12.06;76.44
71361;BME280;59166;48.908;1.870;2023-02-21T18:12:49;100232.34;;;12.07;76.41
71361;BME280;59166;48.908;1.870;2023-02-21T18:17:50;100240.19;;;12.03;76.49
71361;BME280;59166;48.908;1.870;2023-02-21T18:22:53;100229.09;;;11.89;77.83
71361;BME280;59166;48.908;1.870;2023-02-21T18:27:54;100233.44;;;11.91;77.81
71361;BME280;59166;48.908;1.870;2023-02-21T18:32:55;100246.69;;;11.77;77.98
71361;BME280;59166;48.908;1.870;2023-02-21T18:37:58;100242.59;;;11.44;79.56
71361;BME280;59166;48.908;1.870;2023-02-21T18:42:59;100250.88;;;11.12;81.07
71361;BME280;59166;48.908;1.870;2023-02-21T18:48:00;100250.16;;;10.75;83.26
71361;BME280;59166;48.908;1.870;2023-02-21T18:53:03;100248.44;;;10.64;84.10
71361;BME280;59166;48.908;1.870;2023-02-21T18:58:04;100241.09;;;10.54;84.58
71361;BME280;59166;48.908;1.870;2023-02-21T19:03:06;100239.69;;;10.42;85.21
71361;BME280;59166;48.908;1.870;2023-02-21T19:08:09;100230.44;;;10.32;86.06
71361;BME280;59166;48.908;1.870;2023-02-21T19:13:09;100229.88;;;10.30;86.05
71361;BME280;59166;48.908;1.870;2023-02-21T19:18:10;100223.66;;;10.30;86.84
71361;BME280;59166;48.908;1.870;2023-02-21T19:23:12;100214.72;;;10.24;86.75
71361;BME280;59166;48.908;1.870;2023-02-21T19:28:13;100218.19;;;10.20;88.27
71361;BME280;59166;48.908;1.870;2023-02-21T19:33:14;100214.19;;;10.22;87.57
71361;BME280;59166;48.908;1.870;2023-02-21T19:38:16;100199.81;;;10.17;87.46
71361;BME280;59166;48.908;1.870;2023-02-21T19:43:17;100199.50;;;10.08;88.52
71361;BME280;59166;48.908;1.870;2023-02-21T19:48:17;100205.66;;;9.99;89.16
71361;BME280;59166;48.908;1.870;2023-02-21T19:53:19;100202.59;;;9.90;89.47
71361;BME280;59166;48.908;1.870;2023-02-21T19:58:20;100211.69;;;9.79;89.21
71361;BME280;59166;48.908;1.870;2023-02-21T20:03:21;100199.22;;;9.73;90.00
71361;BME280;59166;48.908;1.870;2023-02-21T20:08:23;100195.13;;;9.65;89.75
71361;BME280;59166;48.908;1.870;2023-02-21T20:13:23;100193.19;;;9.61;90.26
71361;BME280;59166;48.908;1.870;2023-02-21T20:18:24;100197.78;;;9.60;91.29
71361;BME280;59166;48.908;1.870;2023-02-21T20:23:26;100200.47;;;9.60;91.46
71361;BME280;59166;48.908;1.870;2023-02-21T20:28:27;100210.72;;;9.58;91.76
71361;BME280;59166;48.908;1.870;2023-02-21T20:33:27;100217.09;;;9.52;92.39
71361;BME280;59166;48.908;1.870;2023-02-21T20:38:29;100212.53;;;9.53;91.89
71361;BME280;59166;48.908;1.870;2023-02-21T20:43:30;100216.84;;;9.54;91.97
71361;BME280;59166;48.908;1.870;2023-02-21T20:48:31;100212.53;;;9.53;92.04
71361;BME280;59166;48.908;1.870;2023-02-21T20:53:33;100202.03;;;9.56;91.05
71361;BME280;59166;48.908;1.870;2023-02-21T20:58:34;100201.28;;;9.61;91.54
71361;BME280;59166;48.908;1.870;2023-02-21T21:03:34;100203.44;;;9.59;91.59
71361;BME280;59166;48.908;1.870;2023-02-21T21:08:36;100204.94;;;9.50;91.66
71361;BME280;59166;48.908;1.870;2023-02-21T21:13:37;100220.06;;;9.51;92.15
71361;BME280;59166;48.908;1.870;2023-02-21T21:18:37;100222.22;;;9.49;91.88
71361;BME280;59166;48.908;1.870;2023-02-21T21:23:40;100213.56;;;9.47;92.34
71361;BME280;59166;48.908;1.870;2023-02-21T21:28:40;100206.78;;;9.44;92.25
71361;BME280;59166;48.908;1.870;2023-02-21T21:33:41;100208.91;;;9.42;90.45
71361;BME280;59166;48.908;1.870;2023-02-21T21:38:43;100202.00;;;9.51;88.83
71361;BME280;59166;48.908;1.870;2023-02-21T21:43:44;100199.09;;;9.58;88.09
71361;BME280;59166;48.908;1.870;2023-02-21T21:48:45;100193.22;;;9.66;86.38
71361;BME280;59166;48.908;1.870;2023-02-21T21:53:47;100180.63;;;9.71;86.31
71361;BME280;59166;48.908;1.870;2023-02-21T21:58:48;100180.34;;;9.73;86.73
71361;BME280;59166;48.908;1.870;2023-02-21T22:03:48;100172.31;;;9.78;86.36
71361;BME280;59166;48.908;1.870;2023-02-21T22:08:51;100168.84;;;9.82;86.17
71361;BME280;59166;48.908;1.870;2023-02-21T22:13:52;100166.16;;;9.82;86.61
71361;BME280;59166;48.908;1.870;2023-02-21T22:18:53;100158.84;;;9.83;85.93
71361;BME280;59166;48.908;1.870;2023-02-21T22:23:55;100146.69;;;9.80;86.43
71361;BME280;59166;48.908;1.870;2023-02-21T22:28:56;100146.44;;;9.82;86.39
71361;BME280;59166;48.908;1.870;2023-02-21T22:33:57;100145.91;;;9.85;85.89
71361;BME280;59166;48.908;1.870;2023-02-21T22:38:59;100145.09;;;9.84;86.69
71361;BME280;59166;48.908;1.870;2023-02-21T22:44:00;100141.88;;;9.88;87.29
71361;BME280;59166;48.908;1.870;2023-02-21T22:49:01;100145.41;;;9.93;87.30
71361;BME280;59166;48.908;1.870;2023-02-21T22:54:04;100140.06;;;9.98;87.06
71361;BME280;59166;48.908;1.870;2023-02-21T22:59:05;100136.84;;;10.01;87.71
71361;BME280;59166;48.908;1.870;2023-02-21T23:04:05;100126.88;;;10.02;87.59
71361;BME280;59166;48.908;1.870;2023-02-21T23:09:08;100122.00;;;10.04;87.22
71361;BME280;59166;48.908;1.870;2023-02-21T23:14:09;100113.38;;;10.07;87.46
71361;BME280;59166;48.908;1.870;2023-02-21T23:19:10;100110.47;;;10.13;87.40
71361;BME280;59166;48.908;1.870;2023-02-21T23:24:12;100118.59;;;10.18;87.54
71361;BME280;59166;48.908;1.870;2023-02-21T23:29:16;100118.34;;;10.25;87.80
71361;BME280;59166;48.908;1.870;2023-02-21T23:34:17;100127.28;;;10.25;88.02
71361;BME280;59166;48.908;1.870;2023-02-21T23:39:19;100133.75;;;10.24;88.50
71361;BME280;59166;48.908;1.870;2023-02-21T23:44:20;100135.38;;;10.25;88.07
71361;BME280;59166;48.908;1.870;2023-02-21T23:49:21;100128.63;;;10.23;88.20
71361;BME280;59166;48.908;1.870;2023-02-21T23:54:23;100121.84;;;10.20;88.30
71361;BME280;59166;48.908;1.870;2023-02-21T23:59:24;100110.22;;;10.20;87.93
